Meta, Missouri
Current Conditions -  °F | °C
As of 9:03 AM on Monday 22 Dec 2014 (Local Time) from KJEF Reporting Station
Haze Haze  
Wind Chill: 38°   Ceiling: 1100
Heat Index: 41°   Visibility: 4mi
Dew Point: 40°   Wind: 5mph
Humidity: 96%   Direction: 120°ESE
Pressure: 29.68"   Gusts: NA
Location:  38.31°N, 92.17°W
Report Text: KJEF 221503Z 12004KT 4SM BR OVC011 05/04 A2968 RMK AO2 T00500044
Loading
Personal Weather Stations






























Interactive Weather Map New forecast layout! Learn more

10-Day Weather Forecast

Advertisements
Track Severe Weather on mobile